world map with MLE marked

MLE - Airport

This information may not be accurate or current and is not valid for navigation or flight planning. No warranty of fitness for any purpose is made or implied.

flag of Maldives

Donate via PayPal

Additional information is available on the NEW Great Circle Mapper

Location
City:  Malé, Hulhulé Island, Malé (Maale), Maldives
Name:Malé International (Ibrahim Nasir International, Hulhulé Airport)
ICAO / IATA:VRMM / MLE

Details
Type:Airport (Aerodrome, Airfield)
Use:Public/Civil
Latitude:4°11'30"N (4.191667)
Longitude:73°31'45"E (73.529167)
Elevation:6 ft (2 m)
Runways:1
Longest:10499 × 148 ft (3200 × 45 m)

Time
Timezone:UTC+5 (DST+7)
Local Time:

Weather
METAR:VRMM  200800Z 07010KT 7000 FEW018 30/22 Q1011 NOSIG
TAF:VRMM  200500Z 2006/2112 07011KT 7000 FEW018= TAF VRMG 200500Z 2006/2112 05005KT 7000 FEW018 TEMPO 2009/2015 6000 -SHRA FEW018CB

Related Locations
Nearby:
Farthest:SEII: 11355 mi / 18274 km
Puerto Villamil [General Villamil], Isabela Island, W, EC

Find:

   beyond  
but within

Other Information
Maps:
Links:
Sources:

  

Airport Diagram

Airport diagram for MLE

Airport diagram PDF

 


Great Circle Mapper   Great Circle Mapper
Great Circle Mapper FAQ   Great Circle Mapper FAQ
  Karl's Home Page
KLS˛   KLS˛ Home
   GC on Facebook
Airlines of the World   Airlines of the World
Donate via PayPal


Copyright © 2004-2017, Karl L. Swartz. All rights reserved.
All trademarks mentioned herein belong to their respective owners.

Please see credits for attribution and copyright information.

Karl Swartz <karl@kls2.com>
  Powered by FreeBSD
Valid HTML 4.01!
Labeled with ICRA
hCard Microformat
Geo Microformat